Mountain Park, Oregon
Current Conditions -  °F | °C
As of 9:53 AM on Sunday 21 Dec 2014 (Local Time) from KUAO Reporting Station
Overcast Overcast  
Wind Chill: 54°   Ceiling: 8500
Heat Index: 54°   Visibility: 10mi
Dew Point: 51°   Wind: 8mph
Humidity: 90%   Direction: 190°S
Pressure: 30.07"   Gusts: NA
Location:  45.413°N, 122.725°W
Report Text: KUAO 211753Z AUTO 19007KT 10SM OVC085 12/11 A3007 RMK AO2 SLP183 60001 T01220106 10122 20117 53035
Loading
Personal Weather Stations






























Interactive Weather Map New forecast layout! Learn more

10-Day Weather Forecast

Advertisements
Track Severe Weather on mobile